sensor_id;sensor_type;location;lat;lon;timestamp;temperature;humidity
8332;DHT22;4203;48.144;14.118;2023-03-01T00:02:17;-1.50;99.90
8332;DHT22;4203;48.144;14.118;2023-03-01T00:04:44;-1.50;99.90
8332;DHT22;4203;48.144;14.118;2023-03-01T00:07:12;-1.60;99.90
8332;DHT22;4203;48.144;14.118;2023-03-01T00:09:39;-1.50;99.90
8332;DHT22;4203;48.144;14.118;2023-03-01T00:12:06;-1.60;99.90
8332;DHT22;4203;48.144;14.118;2023-03-01T00:14:33;-1.50;99.90
8332;DHT22;4203;48.144;14.118;2023-03-01T00:17:03;-1.60;99.90
8332;DHT22;4203;48.144;14.118;2023-03-01T00:19:30;-1.60;99.90
8332;DHT22;4203;48.144;14.118;2023-03-01T00:21:58;-1.60;99.90
8332;DHT22;4203;48.144;14.118;2023-03-01T00:24:25;-1.50;99.90
8332;DHT22;4203;48.144;14.118;2023-03-01T00:26:53;-1.60;99.90
8332;DHT22;4203;48.144;14.118;2023-03-01T00:29:22;-1.50;99.90
8332;DHT22;4203;48.144;14.118;2023-03-01T00:31:49;-1.50;99.90
8332;DHT22;4203;48.144;14.118;2023-03-01T00:34:17;-1.50;99.90
8332;DHT22;4203;48.144;14.118;2023-03-01T00:36:45;-1.50;99.90
8332;DHT22;4203;48.144;14.118;2023-03-01T00:39:14;-1.50;99.90
8332;DHT22;4203;48.144;14.118;2023-03-01T00:41:41;-1.50;99.90
8332;DHT22;4203;48.144;14.118;2023-03-01T00:44:09;-1.50;99.90
8332;DHT22;4203;48.144;14.118;2023-03-01T00:46:36;-1.50;99.90
8332;DHT22;4203;48.144;14.118;2023-03-01T00:49:04;-1.50;99.90
8332;DHT22;4203;48.144;14.118;2023-03-01T00:51:33;-1.40;99.90
8332;DHT22;4203;48.144;14.118;2023-03-01T00:54:02;-1.50;99.90
8332;DHT22;4203;48.144;14.118;2023-03-01T00:56:30;-1.50;99.90
8332;DHT22;4203;48.144;14.118;2023-03-01T00:58:58;-1.50;99.90
8332;DHT22;4203;48.144;14.118;2023-03-01T01:01:27;-1.40;99.90
8332;DHT22;4203;48.144;14.118;2023-03-01T01:03:58;-1.40;99.90
8332;DHT22;4203;48.144;14.118;2023-03-01T01:06:27;-1.40;99.90
8332;DHT22;4203;48.144;14.118;2023-03-01T01:08:56;-1.40;99.90
8332;DHT22;4203;48.144;14.118;2023-03-01T01:11:26;-1.40;99.90
8332;DHT22;4203;48.144;14.118;2023-03-01T01:13:54;-1.40;99.90
8332;DHT22;4203;48.144;14.118;2023-03-01T01:16:23;-1.50;99.90
8332;DHT22;4203;48.144;14.118;2023-03-01T01:18:50;-1.50;99.90
8332;DHT22;4203;48.144;14.118;2023-03-01T01:21:19;-1.50;99.90
8332;DHT22;4203;48.144;14.118;2023-03-01T01:23:47;-1.50;99.90
8332;DHT22;4203;48.144;14.118;2023-03-01T01:26:18;-1.50;99.90
8332;DHT22;4203;48.144;14.118;2023-03-01T01:28:45;-1.50;99.90
8332;DHT22;4203;48.144;14.118;2023-03-01T01:31:12;-1.50;99.90
8332;DHT22;4203;48.144;14.118;2023-03-01T01:33:40;-1.50;99.90
8332;DHT22;4203;48.144;14.118;2023-03-01T01:36:07;-1.50;99.90
8332;DHT22;4203;48.144;14.118;2023-03-01T01:38:35;-1.50;99.90
8332;DHT22;4203;48.144;14.118;2023-03-01T01:41:03;-1.50;99.90
8332;DHT22;4203;48.144;14.118;2023-03-01T01:43:34;-1.50;99.90
8332;DHT22;4203;48.144;14.118;2023-03-01T01:46:03;-1.50;99.90
8332;DHT22;4203;48.144;14.118;2023-03-01T01:48:37;-1.50;99.90
8332;DHT22;4203;48.144;14.118;2023-03-01T01:51:10;-1.60;99.90
8332;DHT22;4203;48.144;14.118;2023-03-01T01:53:38;-1.60;99.90
8332;DHT22;4203;48.144;14.118;2023-03-01T01:56:08;-1.60;99.90
8332;DHT22;4203;48.144;14.118;2023-03-01T01:58:37;-1.60;99.90
8332;DHT22;4203;48.144;14.118;2023-03-01T02:01:05;-1.60;99.90
8332;DHT22;4203;48.144;14.118;2023-03-01T02:03:34;-1.60;99.90
8332;DHT22;4203;48.144;14.118;2023-03-01T02:06:06;-1.60;99.90
8332;DHT22;4203;48.144;14.118;2023-03-01T02:08:37;-1.60;99.90
8332;DHT22;4203;48.144;14.118;2023-03-01T02:11:05;-1.60;99.90
8332;DHT22;4203;48.144;14.118;2023-03-01T02:13:33;-1.60;99.90
8332;DHT22;4203;48.144;14.118;2023-03-01T02:16:05;-1.60;99.90
8332;DHT22;4203;48.144;14.118;2023-03-01T02:18:34;-1.60;99.90
8332;DHT22;4203;48.144;14.118;2023-03-01T02:21:11;-1.60;99.90
8332;DHT22;4203;48.144;14.118;2023-03-01T02:23:41;-1.60;99.90
8332;DHT22;4203;48.144;14.118;2023-03-01T02:26:15;-1.60;99.90
8332;DHT22;4203;48.144;14.118;2023-03-01T02:28:47;-1.60;99.90
8332;DHT22;4203;48.144;14.118;2023-03-01T02:31:17;-1.60;99.90
8332;DHT22;4203;48.144;14.118;2023-03-01T02:34:04;-1.70;99.90
8332;DHT22;4203;48.144;14.118;2023-03-01T02:36:35;-1.60;99.90
8332;DHT22;4203;48.144;14.118;2023-03-01T02:39:05;-1.70;99.90
8332;DHT22;4203;48.144;14.118;2023-03-01T02:41:35;-1.70;99.90
8332;DHT22;4203;48.144;14.118;2023-03-01T02:44:05;-1.70;99.90
8332;DHT22;4203;48.144;14.118;2023-03-01T02:46:34;-1.70;99.90
8332;DHT22;4203;48.144;14.118;2023-03-01T02:49:20;-1.70;99.90
8332;DHT22;4203;48.144;14.118;2023-03-01T02:51:56;-1.70;99.90
8332;DHT22;4203;48.144;14.118;2023-03-01T02:54:33;-1.70;99.90
8332;DHT22;4203;48.144;14.118;2023-03-01T02:57:01;-1.70;99.90
8332;DHT22;4203;48.144;14.118;2023-03-01T02:59:32;-1.70;99.90
8332;DHT22;4203;48.144;14.118;2023-03-01T03:02:01;-1.70;99.90
8332;DHT22;4203;48.144;14.118;2023-03-01T03:04:28;-1.70;99.90
8332;DHT22;4203;48.144;14.118;2023-03-01T03:06:55;-1.70;99.90
8332;DHT22;4203;48.144;14.118;2023-03-01T03:09:22;-1.70;99.90
8332;DHT22;4203;48.144;14.118;2023-03-01T03:11:49;-1.70;99.90
8332;DHT22;4203;48.144;14.118;2023-03-01T03:14:17;-1.60;99.90
8332;DHT22;4203;48.144;14.118;2023-03-01T03:16:48;-1.60;99.90
8332;DHT22;4203;48.144;14.118;2023-03-01T03:19:16;-1.70;99.90
8332;DHT22;4203;48.144;14.118;2023-03-01T03:21:43;-1.70;99.90
8332;DHT22;4203;48.144;14.118;2023-03-01T03:24:10;-1.70;99.90
8332;DHT22;4203;48.144;14.118;2023-03-01T03:26:37;-1.70;99.90
8332;DHT22;4203;48.144;14.118;2023-03-01T03:29:05;-1.70;99.90
8332;DHT22;4203;48.144;14.118;2023-03-01T03:31:32;-1.70;99.90
8332;DHT22;4203;48.144;14.118;2023-03-01T03:34:00;-1.70;99.90
8332;DHT22;4203;48.144;14.118;2023-03-01T03:36:28;-1.70;99.90
8332;DHT22;4203;48.144;14.118;2023-03-01T03:38:55;-1.70;99.90
8332;DHT22;4203;48.144;14.118;2023-03-01T03:41:22;-0.80;99.90
8332;DHT22;4203;48.144;14.118;2023-03-01T03:43:49;-1.70;99.90
8332;DHT22;4203;48.144;14.118;2023-03-01T03:46:16;-1.60;99.90
8332;DHT22;4203;48.144;14.118;2023-03-01T03:48:44;-1.70;99.90
8332;DHT22;4203;48.144;14.118;2023-03-01T03:51:15;-1.70;99.90
8332;DHT22;4203;48.144;14.118;2023-03-01T03:53:42;-1.70;99.90
8332;DHT22;4203;48.144;14.118;2023-03-01T03:56:10;-1.80;99.90
8332;DHT22;4203;48.144;14.118;2023-03-01T03:58:38;-1.70;99.90
8332;DHT22;4203;48.144;14.118;2023-03-01T04:01:05;-1.80;99.90
8332;DHT22;4203;48.144;14.118;2023-03-01T04:03:33;-1.80;99.90
8332;DHT22;4203;48.144;14.118;2023-03-01T04:06:02;-1.80;99.90
8332;DHT22;4203;48.144;14.118;2023-03-01T04:08:31;-1.90;99.90
8332;DHT22;4203;48.144;14.118;2023-03-01T04:11:00;-1.90;99.90
8332;DHT22;4203;48.144;14.118;2023-03-01T04:13:48;-1.90;99.90
8332;DHT22;4203;48.144;14.118;2023-03-01T04:16:15;-1.90;99.90
8332;DHT22;4203;48.144;14.118;2023-03-01T04:18:43;-1.90;99.90
8332;DHT22;4203;48.144;14.118;2023-03-01T04:21:11;-1.90;99.90
8332;DHT22;4203;48.144;14.118;2023-03-01T04:23:40;-1.90;99.90
8332;DHT22;4203;48.144;14.118;2023-03-01T04:26:07;-2.00;99.90
8332;DHT22;4203;48.144;14.118;2023-03-01T04:28:36;-2.00;99.90
8332;DHT22;4203;48.144;14.118;2023-03-01T04:31:06;-2.00;99.90
8332;DHT22;4203;48.144;14.118;2023-03-01T04:33:39;-2.00;99.90
8332;DHT22;4203;48.144;14.118;2023-03-01T04:36:08;-1.90;99.90
8332;DHT22;4203;48.144;14.118;2023-03-01T04:38:36;-1.90;99.90
8332;DHT22;4203;48.144;14.118;2023-03-01T04:41:06;-1.90;99.90
8332;DHT22;4203;48.144;14.118;2023-03-01T04:43:34;-1.90;99.90
8332;DHT22;4203;48.144;14.118;2023-03-01T04:46:02;-1.90;99.90
8332;DHT22;4203;48.144;14.118;2023-03-01T04:48:30;-1.90;99.90
8332;DHT22;4203;48.144;14.118;2023-03-01T04:50:58;-1.90;99.90
8332;DHT22;4203;48.144;14.118;2023-03-01T04:53:25;-1.90;99.90
8332;DHT22;4203;48.144;14.118;2023-03-01T04:55:54;-1.90;99.90
8332;DHT22;4203;48.144;14.118;2023-03-01T04:58:24;-1.80;99.90
8332;DHT22;4203;48.144;14.118;2023-03-01T05:00:52;-1.80;99.90
8332;DHT22;4203;48.144;14.118;2023-03-01T05:03:20;-1.80;99.90
8332;DHT22;4203;48.144;14.118;2023-03-01T05:05:49;-1.90;99.90
8332;DHT22;4203;48.144;14.118;2023-03-01T05:08:17;-1.90;99.90
8332;DHT22;4203;48.144;14.118;2023-03-01T05:10:45;-1.90;99.90
8332;DHT22;4203;48.144;14.118;2023-03-01T05:13:13;-1.90;99.90
8332;DHT22;4203;48.144;14.118;2023-03-01T05:15:48;-1.90;99.90
8332;DHT22;4203;48.144;14.118;2023-03-01T05:18:16;-1.90;99.90
8332;DHT22;4203;48.144;14.118;2023-03-01T05:20:43;-1.90;99.90
8332;DHT22;4203;48.144;14.118;2023-03-01T05:23:11;-1.90;99.90
8332;DHT22;4203;48.144;14.118;2023-03-01T05:25:39;-2.00;99.90
8332;DHT22;4203;48.144;14.118;2023-03-01T05:28:09;-2.00;99.90
8332;DHT22;4203;48.144;14.118;2023-03-01T05:30:37;-2.00;99.90
8332;DHT22;4203;48.144;14.118;2023-03-01T05:33:07;-2.00;99.90
8332;DHT22;4203;48.144;14.118;2023-03-01T05:35:39;-2.00;99.90
8332;DHT22;4203;48.144;14.118;2023-03-01T05:38:07;-2.00;99.90
8332;DHT22;4203;48.144;14.118;2023-03-01T05:40:35;-2.00;99.90
8332;DHT22;4203;48.144;14.118;2023-03-01T05:43:02;-2.00;99.90
8332;DHT22;4203;48.144;14.118;2023-03-01T05:45:31;-2.00;99.90
8332;DHT22;4203;48.144;14.118;2023-03-01T05:47:59;-2.00;99.90
8332;DHT22;4203;48.144;14.118;2023-03-01T05:50:29;-2.00;99.90
8332;DHT22;4203;48.144;14.118;2023-03-01T05:52:59;-2.00;99.90
8332;DHT22;4203;48.144;14.118;2023-03-01T05:55:28;-2.00;99.90
8332;DHT22;4203;48.144;14.118;2023-03-01T05:57:58;-2.00;99.90
8332;DHT22;4203;48.144;14.118;2023-03-01T06:00:26;-2.00;99.90
8332;DHT22;4203;48.144;14.118;2023-03-01T06:02:54;-2.00;99.90
8332;DHT22;4203;48.144;14.118;2023-03-01T06:05:21;-2.00;99.90
8332;DHT22;4203;48.144;14.118;2023-03-01T06:07:50;-2.00;99.90
8332;DHT22;4203;48.144;14.118;2023-03-01T06:10:21;-2.00;99.90
8332;DHT22;4203;48.144;14.118;2023-03-01T06:12:48;-2.00;99.90
8332;DHT22;4203;48.144;14.118;2023-03-01T06:15:16;-2.00;99.90
8332;DHT22;4203;48.144;14.118;2023-03-01T06:17:45;-2.00;99.90
8332;DHT22;4203;48.144;14.118;2023-03-01T06:20:14;-1.90;99.90
8332;DHT22;4203;48.144;14.118;2023-03-01T06:22:42;-1.90;99.90
8332;DHT22;4203;48.144;14.118;2023-03-01T06:25:11;-1.90;99.90
8332;DHT22;4203;48.144;14.118;2023-03-01T06:27:39;-1.90;99.90
8332;DHT22;4203;48.144;14.118;2023-03-01T06:30:08;-1.90;99.90
8332;DHT22;4203;48.144;14.118;2023-03-01T06:32:36;-1.80;99.90
8332;DHT22;4203;48.144;14.118;2023-03-01T06:35:04;-1.80;99.90
8332;DHT22;4203;48.144;14.118;2023-03-01T06:37:31;-1.80;99.90
8332;DHT22;4203;48.144;14.118;2023-03-01T06:39:58;-1.80;99.90
8332;DHT22;4203;48.144;14.118;2023-03-01T06:42:27;-1.70;99.90
8332;DHT22;4203;48.144;14.118;2023-03-01T06:44:54;-1.70;99.90
8332;DHT22;4203;48.144;14.118;2023-03-01T06:47:21;-1.60;99.90
8332;DHT22;4203;48.144;14.118;2023-03-01T06:49:48;-1.60;99.90
8332;DHT22;4203;48.144;14.118;2023-03-01T06:52:15;-1.50;99.90
8332;DHT22;4203;48.144;14.118;2023-03-01T06:54:42;-1.40;99.90
8332;DHT22;4203;48.144;14.118;2023-03-01T06:57:09;-1.40;99.90
8332;DHT22;4203;48.144;14.118;2023-03-01T06:59:38;-1.40;99.90
8332;DHT22;4203;48.144;14.118;2023-03-01T07:02:05;-1.30;99.90
8332;DHT22;4203;48.144;14.118;2023-03-01T07:04:32;-1.30;99.90
8332;DHT22;4203;48.144;14.118;2023-03-01T07:06:59;-1.20;99.90
8332;DHT22;4203;48.144;14.118;2023-03-01T07:09:27;-1.20;99.90
8332;DHT22;4203;48.144;14.118;2023-03-01T07:11:54;-1.10;99.90
8332;DHT22;4203;48.144;14.118;2023-03-01T07:14:21;-1.10;99.90
8332;DHT22;4203;48.144;14.118;2023-03-01T07:16:51;-1.10;99.90
8332;DHT22;4203;48.144;14.118;2023-03-01T07:19:18;-1.00;99.90
8332;DHT22;4203;48.144;14.118;2023-03-01T07:21:45;-1.00;99.90
8332;DHT22;4203;48.144;14.118;2023-03-01T07:24:13;-0.90;99.90
8332;DHT22;4203;48.144;14.118;2023-03-01T07:26:40;-0.90;99.90
8332;DHT22;4203;48.144;14.118;2023-03-01T07:29:09;-0.80;99.90
8332;DHT22;4203;48.144;14.118;2023-03-01T07:31:36;-0.70;99.90
8332;DHT22;4203;48.144;14.118;2023-03-01T07:34:05;-0.60;99.90
8332;DHT22;4203;48.144;14.118;2023-03-01T07:36:32;-0.50;99.90
8332;DHT22;4203;48.144;14.118;2023-03-01T07:38:59;-0.40;99.90
8332;DHT22;4203;48.144;14.118;2023-03-01T07:41:28;-0.30;99.90
8332;DHT22;4203;48.144;14.118;2023-03-01T07:43:55;-0.20;99.90
8332;DHT22;4203;48.144;14.118;2023-03-01T07:46:22;-0.10;99.90
8332;DHT22;4203;48.144;14.118;2023-03-01T07:48:50;0.10;99.90
8332;DHT22;4203;48.144;14.118;2023-03-01T07:51:18;0.20;99.90
8332;DHT22;4203;48.144;14.118;2023-03-01T07:53:46;0.30;99.90
8332;DHT22;4203;48.144;14.118;2023-03-01T07:56:14;0.40;99.90
8332;DHT22;4203;48.144;14.118;2023-03-01T07:58:44;0.60;99.90
8332;DHT22;4203;48.144;14.118;2023-03-01T08:01:13;0.70;99.90
8332;DHT22;4203;48.144;14.118;2023-03-01T08:03:41;0.80;99.90
8332;DHT22;4203;48.144;14.118;2023-03-01T08:06:10;1.00;99.90
8332;DHT22;4203;48.144;14.118;2023-03-01T08:08:39;1.10;99.90
8332;DHT22;4203;48.144;14.118;2023-03-01T08:11:07;1.30;99.90
8332;DHT22;4203;48.144;14.118;2023-03-01T08:13:36;1.50;99.90
8332;DHT22;4203;48.144;14.118;2023-03-01T08:16:05;1.70;99.90
8332;DHT22;4203;48.144;14.118;2023-03-01T08:18:33;1.80;99.90
8332;DHT22;4203;48.144;14.118;2023-03-01T08:21:05;1.90;99.90
8332;DHT22;4203;48.144;14.118;2023-03-01T08:23:33;2.10;99.90
8332;DHT22;4203;48.144;14.118;2023-03-01T08:26:06;2.30;99.90
8332;DHT22;4203;48.144;14.118;2023-03-01T08:28:34;2.60;99.90
8332;DHT22;4203;48.144;14.118;2023-03-01T08:31:01;2.80;99.90
8332;DHT22;4203;48.144;14.118;2023-03-01T08:33:29;3.30;99.90
8332;DHT22;4203;48.144;14.118;2023-03-01T08:36:03;3.80;99.90
8332;DHT22;4203;48.144;14.118;2023-03-01T08:38:32;3.80;99.90
8332;DHT22;4203;48.144;14.118;2023-03-01T08:41:00;3.80;99.90
8332;DHT22;4203;48.144;14.118;2023-03-01T08:43:29;3.80;99.90
8332;DHT22;4203;48.144;14.118;2023-03-01T08:45:56;4.00;99.90
8332;DHT22;4203;48.144;14.118;2023-03-01T08:48:24;4.00;99.90
8332;DHT22;4203;48.144;14.118;2023-03-01T08:50:51;4.10;99.90
8332;DHT22;4203;48.144;14.118;2023-03-01T08:53:18;4.30;99.90
8332;DHT22;4203;48.144;14.118;2023-03-01T08:55:45;4.50;99.90
8332;DHT22;4203;48.144;14.118;2023-03-01T08:58:13;4.50;99.90
8332;DHT22;4203;48.144;14.118;2023-03-01T09:00:41;4.90;99.90
8332;DHT22;4203;48.144;14.118;2023-03-01T09:03:09;5.50;99.90
8332;DHT22;4203;48.144;14.118;2023-03-01T09:05:36;5.70;99.90
8332;DHT22;4203;48.144;14.118;2023-03-01T09:08:03;5.70;99.90
8332;DHT22;4203;48.144;14.118;2023-03-01T09:10:30;5.50;99.90
8332;DHT22;4203;48.144;14.118;2023-03-01T09:12:57;5.40;99.90
8332;DHT22;4203;48.144;14.118;2023-03-01T09:15:25;5.50;99.90
8332;DHT22;4203;48.144;14.118;2023-03-01T09:17:53;5.50;99.90
8332;DHT22;4203;48.144;14.118;2023-03-01T09:20:20;5.70;99.90
8332;DHT22;4203;48.144;14.118;2023-03-01T09:22:48;5.50;99.90
8332;DHT22;4203;48.144;14.118;2023-03-01T09:25:15;5.50;99.90
8332;DHT22;4203;48.144;14.118;2023-03-01T09:27:42;5.70;99.90
8332;DHT22;4203;48.144;14.118;2023-03-01T09:30:10;5.80;99.90
8332;DHT22;4203;48.144;14.118;2023-03-01T09:32:38;5.80;99.90
8332;DHT22;4203;48.144;14.118;2023-03-01T09:35:10;6.30;99.90
8332;DHT22;4203;48.144;14.118;2023-03-01T09:37:37;6.90;99.90
8332;DHT22;4203;48.144;14.118;2023-03-01T09:40:08;6.90;99.90
8332;DHT22;4203;48.144;14.118;2023-03-01T09:42:48;7.10;99.90
8332;DHT22;4203;48.144;14.118;2023-03-01T09:45:26;7.40;99.90
8332;DHT22;4203;48.144;14.118;2023-03-01T09:47:54;7.50;99.90
8332;DHT22;4203;48.144;14.118;2023-03-01T09:50:26;7.50;99.90
8332;DHT22;4203;48.144;14.118;2023-03-01T09:53:00;7.20;99.90
8332;DHT22;4203;48.144;14.118;2023-03-01T09:55:31;7.20;99.90
8332;DHT22;4203;48.144;14.118;2023-03-01T09:58:09;7.40;99.90
8332;DHT22;4203;48.144;14.118;2023-03-01T10:00:46;8.10;99.90
8332;DHT22;4203;48.144;14.118;2023-03-01T10:03:16;8.50;99.90
8332;DHT22;4203;48.144;14.118;2023-03-01T10:05:50;8.60;99.90
8332;DHT22;4203;48.144;14.118;2023-03-01T10:08:29;9.00;99.90
8332;DHT22;4203;48.144;14.118;2023-03-01T10:10:59;9.40;99.90
8332;DHT22;4203;48.144;14.118;2023-03-01T10:13:33;9.70;99.90
8332;DHT22;4203;48.144;14.118;2023-03-01T10:16:06;9.50;99.90
8332;DHT22;4203;48.144;14.118;2023-03-01T10:18:37;9.10;99.90
8332;DHT22;4203;48.144;14.118;2023-03-01T10:21:14;8.90;99.90
8332;DHT22;4203;48.144;14.118;2023-03-01T10:23:43;8.70;99.90
8332;DHT22;4203;48.144;14.118;2023-03-01T10:26:31;8.60;99.90
8332;DHT22;4203;48.144;14.118;2023-03-01T10:29:03;9.20;99.90
8332;DHT22;4203;48.144;14.118;2023-03-01T10:31:38;10.10;99.90
8332;DHT22;4203;48.144;14.118;2023-03-01T10:34:12;10.50;99.90
8332;DHT22;4203;48.144;14.118;2023-03-01T10:36:47;9.80;99.90
8332;DHT22;4203;48.144;14.118;2023-03-01T10:39:16;9.90;99.90
8332;DHT22;4203;48.144;14.118;2023-03-01T10:42:05;10.10;99.90
8332;DHT22;4203;48.144;14.118;2023-03-01T10:44:44;9.90;99.90
8332;DHT22;4203;48.144;14.118;2023-03-01T10:47:18;9.90;99.90
8332;DHT22;4203;48.144;14.118;2023-03-01T10:50:01;9.90;99.90
8332;DHT22;4203;48.144;14.118;2023-03-01T10:52:33;9.70;99.90
8332;DHT22;4203;48.144;14.118;2023-03-01T10:55:03;9.80;99.90
8332;DHT22;4203;48.144;14.118;2023-03-01T10:57:34;9.80;99.90
8332;DHT22;4203;48.144;14.118;2023-03-01T11:00:18;10.10;99.90
8332;DHT22;4203;48.144;14.118;2023-03-01T11:02:48;10.10;99.90
8332;DHT22;4203;48.144;14.118;2023-03-01T11:05:22;10.10;99.90
8332;DHT22;4203;48.144;14.118;2023-03-01T11:07:54;9.70;99.90
8332;DHT22;4203;48.144;14.118;2023-03-01T11:10:24;10.00;99.90
8332;DHT22;4203;48.144;14.118;2023-03-01T11:12:52;9.50;99.90
8332;DHT22;4203;48.144;14.118;2023-03-01T11:15:26;10.10;99.90
8332;DHT22;4203;48.144;14.118;2023-03-01T11:17:53;10.00;99.90
8332;DHT22;4203;48.144;14.118;2023-03-01T11:20:27;10.00;99.90
8332;DHT22;4203;48.144;14.118;2023-03-01T11:23:01;10.10;99.90
8332;DHT22;4203;48.144;14.118;2023-03-01T11:25:33;10.10;99.90
8332;DHT22;4203;48.144;14.118;2023-03-01T11:28:05;10.20;99.90
8332;DHT22;4203;48.144;14.118;2023-03-01T11:30:38;10.50;99.90
8332;DHT22;4203;48.144;14.118;2023-03-01T11:33:16;10.70;99.90
8332;DHT22;4203;48.144;14.118;2023-03-01T11:35:53;10.80;99.90
8332;DHT22;4203;48.144;14.118;2023-03-01T11:38:25;11.20;99.90
8332;DHT22;4203;48.144;14.118;2023-03-01T11:40:55;11.20;99.90
8332;DHT22;4203;48.144;14.118;2023-03-01T11:43:32;11.30;99.90
8332;DHT22;4203;48.144;14.118;2023-03-01T11:46:27;11.50;99.90
8332;DHT22;4203;48.144;14.118;2023-03-01T11:49:04;10.90;99.90
8332;DHT22;4203;48.144;14.118;2023-03-01T11:51:43;11.10;99.90
8332;DHT22;4203;48.144;14.118;2023-03-01T11:54:31;10.90;99.90
8332;DHT22;4203;48.144;14.118;2023-03-01T11:57:03;11.20;99.90
8332;DHT22;4203;48.144;14.118;2023-03-01T12:00:02;11.30;99.90
8332;DHT22;4203;48.144;14.118;2023-03-01T12:03:15;11.60;99.90
8332;DHT22;4203;48.144;14.118;2023-03-01T12:09:00;10.90;99.90
8332;DHT22;4203;48.144;14.118;2023-03-01T12:11:42;11.30;99.90
8332;DHT22;4203;48.144;14.118;2023-03-01T12:14:39;11.30;99.90
8332;DHT22;4203;48.144;14.118;2023-03-01T12:17:29;11.30;99.90
8332;DHT22;4203;48.144;14.118;2023-03-01T12:20:18;11.40;99.90
8332;DHT22;4203;48.144;14.118;2023-03-01T12:23:13;11.90;99.90
8332;DHT22;4203;48.144;14.118;2023-03-01T12:25:48;12.20;99.90
8332;DHT22;4203;48.144;14.118;2023-03-01T12:28:58;11.70;99.90
8332;DHT22;4203;48.144;14.118;2023-03-01T12:31:49;11.60;99.90
8332;DHT22;4203;48.144;14.118;2023-03-01T12:34:37;12.20;99.90
8332;DHT22;4203;48.144;14.118;2023-03-01T12:37:19;12.20;99.90
8332;DHT22;4203;48.144;14.118;2023-03-01T12:39:58;12.20;99.90
8332;DHT22;4203;48.144;14.118;2023-03-01T12:42:33;12.10;99.90
8332;DHT22;4203;48.144;14.118;2023-03-01T12:45:25;12.40;99.90
8332;DHT22;4203;48.144;14.118;2023-03-01T12:48:08;12.50;99.90
8332;DHT22;4203;48.144;14.118;2023-03-01T12:50:41;12.90;99.90
8332;DHT22;4203;48.144;14.118;2023-03-01T12:53:20;13.20;99.90
8332;DHT22;4203;48.144;14.118;2023-03-01T12:55:49;13.70;99.90
8332;DHT22;4203;48.144;14.118;2023-03-01T12:58:24;13.80;99.90
8332;DHT22;4203;48.144;14.118;2023-03-01T13:01:03;13.70;99.80
8332;DHT22;4203;48.144;14.118;2023-03-01T13:04:01;13.30;99.90
8332;DHT22;4203;48.144;14.118;2023-03-01T13:06:37;13.50;99.90
8332;DHT22;4203;48.144;14.118;2023-03-01T13:09:14;13.90;99.90
8332;DHT22;4203;48.144;14.118;2023-03-01T13:11:44;13.90;99.70
8332;DHT22;4203;48.144;14.118;2023-03-01T13:17:39;13.60;99.80
8332;DHT22;4203;48.144;14.118;2023-03-01T13:20:15;13.00;99.90
8332;DHT22;4203;48.144;14.118;2023-03-01T13:22:45;13.00;99.50
8332;DHT22;4203;48.144;14.118;2023-03-01T13:25:15;13.00;99.90
8332;DHT22;4203;48.144;14.118;2023-03-01T13:27:45;13.40;99.90
8332;DHT22;4203;48.144;14.118;2023-03-01T13:30:41;13.90;99.90
8332;DHT22;4203;48.144;14.118;2023-03-01T13:33:38;14.20;99.20
8332;DHT22;4203;48.144;14.118;2023-03-01T13:36:07;14.00;98.70
8332;DHT22;4203;48.144;14.118;2023-03-01T13:38:38;14.20;99.00
8332;DHT22;4203;48.144;14.118;2023-03-01T13:41:07;14.70;99.90
8332;DHT22;4203;48.144;14.118;2023-03-01T13:43:36;14.90;99.30
8332;DHT22;4203;48.144;14.118;2023-03-01T13:46:09;15.10;98.20
8332;DHT22;4203;48.144;14.118;2023-03-01T13:48:40;15.40;98.50
8332;DHT22;4203;48.144;14.118;2023-03-01T13:51:09;15.20;98.20
8332;DHT22;4203;48.144;14.118;2023-03-01T13:53:40;15.10;97.70
8332;DHT22;4203;48.144;14.118;2023-03-01T13:56:11;14.60;98.20
8332;DHT22;4203;48.144;14.118;2023-03-01T13:58:48;14.60;97.60
8332;DHT22;4203;48.144;14.118;2023-03-01T14:01:24;14.80;98.30
8332;DHT22;4203;48.144;14.118;2023-03-01T14:03:54;14.80;98.50
8332;DHT22;4203;48.144;14.118;2023-03-01T14:06:23;15.60;97.30
8332;DHT22;4203;48.144;14.118;2023-03-01T14:09:00;15.20;97.00
8332;DHT22;4203;48.144;14.118;2023-03-01T14:11:59;14.40;97.50
8332;DHT22;4203;48.144;14.118;2023-03-01T14:14:39;13.50;98.20
8332;DHT22;4203;48.144;14.118;2023-03-01T14:20:08;13.40;98.90
8332;DHT22;4203;48.144;14.118;2023-03-01T14:22:41;13.70;97.50
8332;DHT22;4203;48.144;14.118;2023-03-01T14:25:22;13.70;98.60
8332;DHT22;4203;48.144;14.118;2023-03-01T14:28:03;13.50;97.90
8332;DHT22;4203;48.144;14.118;2023-03-01T14:30:34;12.30;98.50
8332;DHT22;4203;48.144;14.118;2023-03-01T14:33:04;10.70;99.80
8332;DHT22;4203;48.144;14.118;2023-03-01T14:35:35;9.80;99.90
8332;DHT22;4203;48.144;14.118;2023-03-01T14:38:03;9.10;99.90
8332;DHT22;4203;48.144;14.118;2023-03-01T14:40:33;8.80;99.90
8332;DHT22;4203;48.144;14.118;2023-03-01T14:43:02;8.80;99.90
8332;DHT22;4203;48.144;14.118;2023-03-01T14:45:35;8.60;99.90
8332;DHT22;4203;48.144;14.118;2023-03-01T14:48:04;8.50;99.90
8332;DHT22;4203;48.144;14.118;2023-03-01T14:50:35;8.40;99.90
8332;DHT22;4203;48.144;14.118;2023-03-01T14:53:15;8.30;99.90
8332;DHT22;4203;48.144;14.118;2023-03-01T14:55:46;8.20;99.90
8332;DHT22;4203;48.144;14.118;2023-03-01T14:58:16;8.10;99.90
8332;DHT22;4203;48.144;14.118;2023-03-01T15:00:49;8.10;99.90
8332;DHT22;4203;48.144;14.118;2023-03-01T15:03:23;8.10;99.90
8332;DHT22;4203;48.144;14.118;2023-03-01T15:05:53;8.10;99.90
8332;DHT22;4203;48.144;14.118;2023-03-01T15:08:22;8.10;99.90
8332;DHT22;4203;48.144;14.118;2023-03-01T15:11:00;7.90;99.90
8332;DHT22;4203;48.144;14.118;2023-03-01T15:13:31;7.90;99.90
8332;DHT22;4203;48.144;14.118;2023-03-01T15:16:04;7.90;99.90
8332;DHT22;4203;48.144;14.118;2023-03-01T15:18:33;7.80;99.90
8332;DHT22;4203;48.144;14.118;2023-03-01T15:21:14;7.90;99.90
8332;DHT22;4203;48.144;14.118;2023-03-01T15:23:47;7.60;99.90
8332;DHT22;4203;48.144;14.118;2023-03-01T15:26:23;7.50;99.90
8332;DHT22;4203;48.144;14.118;2023-03-01T15:28:52;7.50;99.90
8332;DHT22;4203;48.144;14.118;2023-03-01T15:31:25;7.40;99.90
8332;DHT22;4203;48.144;14.118;2023-03-01T15:34:08;7.40;99.90
8332;DHT22;4203;48.144;14.118;2023-03-01T15:36:43;7.30;99.90
8332;DHT22;4203;48.144;14.118;2023-03-01T15:39:39;7.30;99.90
8332;DHT22;4203;48.144;14.118;2023-03-01T15:42:11;7.20;99.90
8332;DHT22;4203;48.144;14.118;2023-03-01T15:44:40;7.20;99.90
8332;DHT22;4203;48.144;14.118;2023-03-01T15:47:28;7.10;99.90
8332;DHT22;4203;48.144;14.118;2023-03-01T15:49:57;7.10;99.90
8332;DHT22;4203;48.144;14.118;2023-03-01T15:52:28;7.00;99.90
8332;DHT22;4203;48.144;14.118;2023-03-01T15:54:57;7.00;99.90
8332;DHT22;4203;48.144;14.118;2023-03-01T15:57:25;6.90;99.90
8332;DHT22;4203;48.144;14.118;2023-03-01T15:59:52;6.90;99.90
8332;DHT22;4203;48.144;14.118;2023-03-01T16:02:20;6.70;99.90
8332;DHT22;4203;48.144;14.118;2023-03-01T16:04:47;6.70;99.90
8332;DHT22;4203;48.144;14.118;2023-03-01T16:07:16;6.50;99.90
8332;DHT22;4203;48.144;14.118;2023-03-01T16:09:44;6.40;99.90
8332;DHT22;4203;48.144;14.118;2023-03-01T16:12:14;6.40;99.90
8332;DHT22;4203;48.144;14.118;2023-03-01T16:14:42;6.30;99.90
8332;DHT22;4203;48.144;14.118;2023-03-01T16:17:09;6.30;99.90
8332;DHT22;4203;48.144;14.118;2023-03-01T16:19:37;6.20;99.90
8332;DHT22;4203;48.144;14.118;2023-03-01T16:22:04;6.10;99.90
8332;DHT22;4203;48.144;14.118;2023-03-01T16:24:31;6.00;99.90
8332;DHT22;4203;48.144;14.118;2023-03-01T16:27:00;5.90;99.90